sensor_id;sensor_type;location;lat;lon;timestamp;P1;durP1;ratioP1;P2;durP2;ratioP2
11608;SDS011;5860;52.018;8.536;2022-07-17T00:00:43;3.93;;;1.40;;
11608;SDS011;5860;52.018;8.536;2022-07-17T00:03:11;6.73;;;1.50;;
11608;SDS011;5860;52.018;8.536;2022-07-17T00:05:39;5.83;;;1.97;;
11608;SDS011;5860;52.018;8.536;2022-07-17T00:08:06;6.20;;;1.50;;
11608;SDS011;5860;52.018;8.536;2022-07-17T00:10:35;6.03;;;1.30;;
11608;SDS011;5860;52.018;8.536;2022-07-17T00:13:04;5.13;;;1.70;;
11608;SDS011;5860;52.018;8.536;2022-07-17T00:15:32;4.63;;;1.43;;
11608;SDS011;5860;52.018;8.536;2022-07-17T00:17:59;2.23;;;1.10;;
11608;SDS011;5860;52.018;8.536;2022-07-17T00:20:27;6.33;;;1.47;;
11608;SDS011;5860;52.018;8.536;2022-07-17T00:22:54;3.97;;;1.03;;
11608;SDS011;5860;52.018;8.536;2022-07-17T00:25:22;5.83;;;1.43;;
11608;SDS011;5860;52.018;8.536;2022-07-17T00:27:48;8.13;;;1.67;;
11608;SDS011;5860;52.018;8.536;2022-07-17T00:30:15;3.33;;;1.27;;
11608;SDS011;5860;52.018;8.536;2022-07-17T00:32:43;8.63;;;1.20;;
11608;SDS011;5860;52.018;8.536;2022-07-17T00:35:11;4.13;;;1.80;;
11608;SDS011;5860;52.018;8.536;2022-07-17T00:37:45;5.67;;;1.60;;
11608;SDS011;5860;52.018;8.536;2022-07-17T00:40:18;4.37;;;1.50;;
11608;SDS011;5860;52.018;8.536;2022-07-17T00:42:47;3.63;;;1.23;;
11608;SDS011;5860;52.018;8.536;2022-07-17T00:45:14;6.27;;;1.50;;
11608;SDS011;5860;52.018;8.536;2022-07-17T00:50:14;4.70;;;1.43;;
11608;SDS011;5860;52.018;8.536;2022-07-17T00:52:42;4.40;;;1.23;;
11608;SDS011;5860;52.018;8.536;2022-07-17T00:55:09;10.13;;;1.87;;
11608;SDS011;5860;52.018;8.536;2022-07-17T00:58:00;3.47;;;1.47;;
11608;SDS011;5860;52.018;8.536;2022-07-17T01:00:29;7.70;;;1.60;;
11608;SDS011;5860;52.018;8.536;2022-07-17T01:02:56;4.33;;;1.40;;
11608;SDS011;5860;52.018;8.536;2022-07-17T01:05:24;5.07;;;2.00;;
11608;SDS011;5860;52.018;8.536;2022-07-17T01:07:51;4.53;;;1.50;;
11608;SDS011;5860;52.018;8.536;2022-07-17T01:10:18;6.43;;;1.57;;
11608;SDS011;5860;52.018;8.536;2022-07-17T01:12:46;6.17;;;1.87;;
11608;SDS011;5860;52.018;8.536;2022-07-17T01:15:14;5.43;;;1.90;;
11608;SDS011;5860;52.018;8.536;2022-07-17T01:17:42;6.30;;;2.00;;
11608;SDS011;5860;52.018;8.536;2022-07-17T01:20:10;6.83;;;1.53;;
11608;SDS011;5860;52.018;8.536;2022-07-17T01:22:48;6.70;;;1.83;;
11608;SDS011;5860;52.018;8.536;2022-07-17T01:25:17;5.97;;;1.43;;
11608;SDS011;5860;52.018;8.536;2022-07-17T01:27:46;4.90;;;1.70;;
11608;SDS011;5860;52.018;8.536;2022-07-17T01:30:12;3.53;;;1.60;;
11608;SDS011;5860;52.018;8.536;2022-07-17T01:32:40;5.50;;;1.60;;
11608;SDS011;5860;52.018;8.536;2022-07-17T01:35:08;8.87;;;1.83;;
11608;SDS011;5860;52.018;8.536;2022-07-17T01:37:36;5.87;;;1.80;;
11608;SDS011;5860;52.018;8.536;2022-07-17T01:40:05;6.77;;;1.70;;
11608;SDS011;5860;52.018;8.536;2022-07-17T01:42:32;8.47;;;1.70;;
11608;SDS011;5860;52.018;8.536;2022-07-17T01:44:59;7.27;;;1.90;;
11608;SDS011;5860;52.018;8.536;2022-07-17T01:47:26;6.40;;;1.87;;
11608;SDS011;5860;52.018;8.536;2022-07-17T01:49:54;5.70;;;2.10;;
11608;SDS011;5860;52.018;8.536;2022-07-17T01:52:23;6.33;;;2.13;;
11608;SDS011;5860;52.018;8.536;2022-07-17T01:54:52;6.63;;;1.77;;
11608;SDS011;5860;52.018;8.536;2022-07-17T01:57:20;5.70;;;1.77;;
11608;SDS011;5860;52.018;8.536;2022-07-17T01:59:47;6.37;;;2.33;;
11608;SDS011;5860;52.018;8.536;2022-07-17T02:02:14;6.73;;;2.17;;
11608;SDS011;5860;52.018;8.536;2022-07-17T02:04:42;4.60;;;1.80;;
11608;SDS011;5860;52.018;8.536;2022-07-17T02:07:10;5.77;;;1.90;;
11608;SDS011;5860;52.018;8.536;2022-07-17T02:09:37;5.30;;;1.53;;
11608;SDS011;5860;52.018;8.536;2022-07-17T02:12:04;4.07;;;1.53;;
11608;SDS011;5860;52.018;8.536;2022-07-17T02:14:32;7.93;;;1.60;;
11608;SDS011;5860;52.018;8.536;2022-07-17T02:16:59;5.53;;;1.60;;
11608;SDS011;5860;52.018;8.536;2022-07-17T02:19:26;4.43;;;1.50;;
11608;SDS011;5860;52.018;8.536;2022-07-17T02:21:53;7.17;;;1.57;;
11608;SDS011;5860;52.018;8.536;2022-07-17T02:24:20;5.23;;;1.50;;
11608;SDS011;5860;52.018;8.536;2022-07-17T02:26:47;8.27;;;2.33;;
11608;SDS011;5860;52.018;8.536;2022-07-17T02:29:14;4.53;;;1.87;;
11608;SDS011;5860;52.018;8.536;2022-07-17T02:31:41;5.30;;;1.50;;
11608;SDS011;5860;52.018;8.536;2022-07-17T02:34:08;9.20;;;2.07;;
11608;SDS011;5860;52.018;8.536;2022-07-17T02:36:35;9.07;;;1.80;;
11608;SDS011;5860;52.018;8.536;2022-07-17T02:39:02;7.53;;;1.87;;
11608;SDS011;5860;52.018;8.536;2022-07-17T02:41:29;5.13;;;2.03;;
11608;SDS011;5860;52.018;8.536;2022-07-17T02:43:56;6.70;;;1.70;;
11608;SDS011;5860;52.018;8.536;2022-07-17T02:46:23;6.53;;;1.53;;
11608;SDS011;5860;52.018;8.536;2022-07-17T02:48:50;4.47;;;1.70;;
11608;SDS011;5860;52.018;8.536;2022-07-17T02:51:17;3.10;;;1.57;;
11608;SDS011;5860;52.018;8.536;2022-07-17T02:53:44;4.03;;;1.40;;
11608;SDS011;5860;52.018;8.536;2022-07-17T02:56:11;4.30;;;1.70;;
11608;SDS011;5860;52.018;8.536;2022-07-17T02:58:38;6.03;;;1.80;;
11608;SDS011;5860;52.018;8.536;2022-07-17T03:01:05;8.87;;;1.80;;
11608;SDS011;5860;52.018;8.536;2022-07-17T03:03:32;3.10;;;1.30;;
11608;SDS011;5860;52.018;8.536;2022-07-17T03:05:59;7.30;;;2.10;;
11608;SDS011;5860;52.018;8.536;2022-07-17T03:08:26;6.17;;;1.80;;
11608;SDS011;5860;52.018;8.536;2022-07-17T03:10:53;6.47;;;1.80;;
11608;SDS011;5860;52.018;8.536;2022-07-17T03:13:20;7.13;;;1.80;;
11608;SDS011;5860;52.018;8.536;2022-07-17T03:15:47;8.67;;;1.90;;
11608;SDS011;5860;52.018;8.536;2022-07-17T03:18:14;4.60;;;1.43;;
11608;SDS011;5860;52.018;8.536;2022-07-17T03:20:40;3.87;;;1.50;;
11608;SDS011;5860;52.018;8.536;2022-07-17T03:23:07;4.50;;;1.83;;
11608;SDS011;5860;52.018;8.536;2022-07-17T03:25:34;6.73;;;1.90;;
11608;SDS011;5860;52.018;8.536;2022-07-17T03:28:01;4.70;;;1.83;;
11608;SDS011;5860;52.018;8.536;2022-07-17T03:30:28;2.87;;;1.47;;
11608;SDS011;5860;52.018;8.536;2022-07-17T03:32:55;3.40;;;1.70;;
11608;SDS011;5860;52.018;8.536;2022-07-17T03:35:22;8.97;;;1.87;;
11608;SDS011;5860;52.018;8.536;2022-07-17T03:37:49;4.33;;;1.50;;
11608;SDS011;5860;52.018;8.536;2022-07-17T03:40:16;4.00;;;1.90;;
11608;SDS011;5860;52.018;8.536;2022-07-17T03:42:43;5.17;;;2.20;;
11608;SDS011;5860;52.018;8.536;2022-07-17T03:45:10;7.73;;;2.10;;
11608;SDS011;5860;52.018;8.536;2022-07-17T03:47:37;5.30;;;1.90;;
11608;SDS011;5860;52.018;8.536;2022-07-17T03:50:04;4.73;;;2.07;;
11608;SDS011;5860;52.018;8.536;2022-07-17T03:52:31;5.50;;;2.10;;
11608;SDS011;5860;52.018;8.536;2022-07-17T03:54:58;4.30;;;1.80;;
11608;SDS011;5860;52.018;8.536;2022-07-17T03:57:25;5.37;;;2.23;;
11608;SDS011;5860;52.018;8.536;2022-07-17T03:59:52;5.60;;;2.20;;
11608;SDS011;5860;52.018;8.536;2022-07-17T04:02:19;5.30;;;2.03;;
11608;SDS011;5860;52.018;8.536;2022-07-17T04:04:45;6.27;;;2.40;;
11608;SDS011;5860;52.018;8.536;2022-07-17T04:07:12;4.83;;;2.10;;
11608;SDS011;5860;52.018;8.536;2022-07-17T04:09:57;7.20;;;2.60;;
11608;SDS011;5860;52.018;8.536;2022-07-17T04:12:26;6.73;;;2.20;;
11608;SDS011;5860;52.018;8.536;2022-07-17T04:14:53;10.13;;;2.43;;
11608;SDS011;5860;52.018;8.536;2022-07-17T04:17:20;5.73;;;2.40;;
11608;SDS011;5860;52.018;8.536;2022-07-17T04:19:47;6.53;;;2.27;;
11608;SDS011;5860;52.018;8.536;2022-07-17T04:22:15;6.37;;;2.20;;
11608;SDS011;5860;52.018;8.536;2022-07-17T04:24:42;4.27;;;2.17;;
11608;SDS011;5860;52.018;8.536;2022-07-17T04:27:09;6.23;;;2.10;;
11608;SDS011;5860;52.018;8.536;2022-07-17T04:29:37;4.73;;;2.13;;
11608;SDS011;5860;52.018;8.536;2022-07-17T04:32:04;3.13;;;1.80;;
11608;SDS011;5860;52.018;8.536;2022-07-17T04:34:31;7.97;;;2.37;;
11608;SDS011;5860;52.018;8.536;2022-07-17T04:36:59;4.20;;;1.60;;
11608;SDS011;5860;52.018;8.536;2022-07-17T04:39:27;6.07;;;1.63;;
11608;SDS011;5860;52.018;8.536;2022-07-17T04:41:55;5.47;;;1.80;;
11608;SDS011;5860;52.018;8.536;2022-07-17T04:44:22;7.97;;;1.83;;
11608;SDS011;5860;52.018;8.536;2022-07-17T04:46:49;8.17;;;2.27;;
11608;SDS011;5860;52.018;8.536;2022-07-17T04:49:16;6.63;;;2.20;;
11608;SDS011;5860;52.018;8.536;2022-07-17T04:51:42;5.30;;;1.90;;
11608;SDS011;5860;52.018;8.536;2022-07-17T04:54:09;4.53;;;1.80;;
11608;SDS011;5860;52.018;8.536;2022-07-17T04:56:36;7.97;;;2.10;;
11608;SDS011;5860;52.018;8.536;2022-07-17T04:59:03;4.13;;;1.83;;
11608;SDS011;5860;52.018;8.536;2022-07-17T05:01:30;4.60;;;1.80;;
11608;SDS011;5860;52.018;8.536;2022-07-17T05:03:57;3.55;;;2.13;;
11608;SDS011;5860;52.018;8.536;2022-07-17T05:06:24;4.05;;;1.77;;
11608;SDS011;5860;52.018;8.536;2022-07-17T05:08:51;4.97;;;2.10;;
11608;SDS011;5860;52.018;8.536;2022-07-17T05:11:18;5.63;;;2.10;;
11608;SDS011;5860;52.018;8.536;2022-07-17T05:13:45;6.43;;;2.10;;
11608;SDS011;5860;52.018;8.536;2022-07-17T05:16:12;5.13;;;2.13;;
11608;SDS011;5860;52.018;8.536;2022-07-17T05:18:39;3.85;;;2.00;;
11608;SDS011;5860;52.018;8.536;2022-07-17T05:21:06;5.35;;;2.30;;
11608;SDS011;5860;52.018;8.536;2022-07-17T05:23:33;4.15;;;1.70;;
11608;SDS011;5860;52.018;8.536;2022-07-17T05:26:00;4.18;;;2.20;;
11608;SDS011;5860;52.018;8.536;2022-07-17T05:28:27;3.85;;;2.22;;
11608;SDS011;5860;52.018;8.536;2022-07-17T05:30:58;5.60;;;2.20;;
11608;SDS011;5860;52.018;8.536;2022-07-17T05:33:25;4.10;;;1.60;;
11608;SDS011;5860;52.018;8.536;2022-07-17T05:35:52;4.55;;;1.92;;
11608;SDS011;5860;52.018;8.536;2022-07-17T05:38:18;5.07;;;2.13;;
11608;SDS011;5860;52.018;8.536;2022-07-17T05:40:45;4.60;;;2.00;;
11608;SDS011;5860;52.018;8.536;2022-07-17T05:43:12;5.53;;;1.83;;
11608;SDS011;5860;52.018;8.536;2022-07-17T05:45:39;3.15;;;1.58;;
11608;SDS011;5860;52.018;8.536;2022-07-17T05:48:06;4.47;;;1.95;;
11608;SDS011;5860;52.018;8.536;2022-07-17T05:50:34;4.22;;;1.40;;
11608;SDS011;5860;52.018;8.536;2022-07-17T05:53:01;4.82;;;1.48;;
11608;SDS011;5860;52.018;8.536;2022-07-17T05:55:28;3.90;;;1.73;;
11608;SDS011;5860;52.018;8.536;2022-07-17T05:57:55;3.58;;;1.52;;
11608;SDS011;5860;52.018;8.536;2022-07-17T06:00:22;2.90;;;1.50;;
11608;SDS011;5860;52.018;8.536;2022-07-17T06:02:49;5.60;;;1.75;;
11608;SDS011;5860;52.018;8.536;2022-07-17T06:05:16;5.75;;;1.80;;
11608;SDS011;5860;52.018;8.536;2022-07-17T06:07:46;4.43;;;1.65;;
11608;SDS011;5860;52.018;8.536;2022-07-17T06:10:13;4.45;;;1.70;;
11608;SDS011;5860;52.018;8.536;2022-07-17T06:12:40;4.75;;;1.50;;
11608;SDS011;5860;52.018;8.536;2022-07-17T06:15:07;3.97;;;1.70;;
11608;SDS011;5860;52.018;8.536;2022-07-17T06:17:34;3.45;;;1.30;;
11608;SDS011;5860;52.018;8.536;2022-07-17T06:20:08;3.38;;;1.55;;
11608;SDS011;5860;52.018;8.536;2022-07-17T06:22:35;3.35;;;1.73;;
11608;SDS011;5860;52.018;8.536;2022-07-17T06:25:02;5.30;;;1.52;;
11608;SDS011;5860;52.018;8.536;2022-07-17T06:27:29;4.30;;;1.50;;
11608;SDS011;5860;52.018;8.536;2022-07-17T06:29:56;2.95;;;1.50;;
11608;SDS011;5860;52.018;8.536;2022-07-17T06:32:23;5.05;;;1.63;;
11608;SDS011;5860;52.018;8.536;2022-07-17T06:34:50;4.22;;;1.70;;
11608;SDS011;5860;52.018;8.536;2022-07-17T06:37:17;4.90;;;1.77;;
11608;SDS011;5860;52.018;8.536;2022-07-17T06:39:44;4.72;;;1.25;;
11608;SDS011;5860;52.018;8.536;2022-07-17T06:42:11;4.07;;;1.40;;
11608;SDS011;5860;52.018;8.536;2022-07-17T06:44:38;5.22;;;1.80;;
11608;SDS011;5860;52.018;8.536;2022-07-17T06:47:05;5.55;;;1.70;;
11608;SDS011;5860;52.018;8.536;2022-07-17T06:49:32;3.90;;;1.60;;
11608;SDS011;5860;52.018;8.536;2022-07-17T06:51:58;3.15;;;1.55;;
11608;SDS011;5860;52.018;8.536;2022-07-17T06:54:25;4.97;;;1.95;;
11608;SDS011;5860;52.018;8.536;2022-07-17T06:56:53;3.92;;;1.60;;
11608;SDS011;5860;52.018;8.536;2022-07-17T06:59:20;4.43;;;1.55;;
11608;SDS011;5860;52.018;8.536;2022-07-17T07:01:47;2.92;;;1.73;;
11608;SDS011;5860;52.018;8.536;2022-07-17T07:04:14;4.85;;;2.00;;
11608;SDS011;5860;52.018;8.536;2022-07-17T07:06:41;3.35;;;1.70;;
11608;SDS011;5860;52.018;8.536;2022-07-17T07:09:08;3.47;;;1.80;;
11608;SDS011;5860;52.018;8.536;2022-07-17T07:11:42;5.80;;;1.60;;
11608;SDS011;5860;52.018;8.536;2022-07-17T07:14:09;4.40;;;1.80;;
11608;SDS011;5860;52.018;8.536;2022-07-17T07:16:36;4.50;;;1.55;;
11608;SDS011;5860;52.018;8.536;2022-07-17T07:19:03;4.82;;;1.52;;
11608;SDS011;5860;52.018;8.536;2022-07-17T07:21:30;4.18;;;1.77;;
11608;SDS011;5860;52.018;8.536;2022-07-17T07:23:57;3.17;;;1.40;;
11608;SDS011;5860;52.018;8.536;2022-07-17T07:26:24;5.70;;;1.70;;
11608;SDS011;5860;52.018;8.536;2022-07-17T07:28:51;3.53;;;1.52;;
11608;SDS011;5860;52.018;8.536;2022-07-17T07:31:18;3.60;;;1.48;;
11608;SDS011;5860;52.018;8.536;2022-07-17T07:33:45;3.92;;;1.63;;
11608;SDS011;5860;52.018;8.536;2022-07-17T07:36:12;6.22;;;1.50;;
11608;SDS011;5860;52.018;8.536;2022-07-17T07:38:44;4.35;;;1.48;;
11608;SDS011;5860;52.018;8.536;2022-07-17T07:41:13;4.40;;;1.60;;
11608;SDS011;5860;52.018;8.536;2022-07-17T07:43:40;3.30;;;1.40;;
11608;SDS011;5860;52.018;8.536;2022-07-17T07:46:07;3.95;;;1.60;;
11608;SDS011;5860;52.018;8.536;2022-07-17T07:48:35;3.13;;;1.45;;
11608;SDS011;5860;52.018;8.536;2022-07-17T07:51:01;3.63;;;1.40;;
11608;SDS011;5860;52.018;8.536;2022-07-17T07:53:28;4.03;;;1.50;;
11608;SDS011;5860;52.018;8.536;2022-07-17T07:55:55;3.58;;;1.60;;
11608;SDS011;5860;52.018;8.536;2022-07-17T07:58:22;3.03;;;1.50;;
11608;SDS011;5860;52.018;8.536;2022-07-17T08:00:49;3.13;;;1.40;;
11608;SDS011;5860;52.018;8.536;2022-07-17T08:03:17;4.63;;;1.40;;
11608;SDS011;5860;52.018;8.536;2022-07-17T08:05:50;6.40;;;1.77;;
11608;SDS011;5860;52.018;8.536;2022-07-17T08:08:17;4.43;;;1.38;;
11608;SDS011;5860;52.018;8.536;2022-07-17T08:10:44;2.92;;;1.35;;
11608;SDS011;5860;52.018;8.536;2022-07-17T08:13:11;2.97;;;1.75;;
11608;SDS011;5860;52.018;8.536;2022-07-17T08:15:38;5.20;;;1.73;;
11608;SDS011;5860;52.018;8.536;2022-07-17T08:18:05;4.65;;;1.30;;
11608;SDS011;5860;52.018;8.536;2022-07-17T08:20:32;3.95;;;1.48;;
11608;SDS011;5860;52.018;8.536;2022-07-17T08:22:59;4.22;;;1.50;;
11608;SDS011;5860;52.018;8.536;2022-07-17T08:25:31;5.07;;;1.70;;
11608;SDS011;5860;52.018;8.536;2022-07-17T08:28:20;4.35;;;1.38;;
11608;SDS011;5860;52.018;8.536;2022-07-17T08:30:47;2.92;;;1.42;;
11608;SDS011;5860;52.018;8.536;2022-07-17T08:33:14;3.67;;;1.88;;
11608;SDS011;5860;52.018;8.536;2022-07-17T08:35:42;3.30;;;1.38;;
11608;SDS011;5860;52.018;8.536;2022-07-17T08:38:09;5.13;;;1.70;;
11608;SDS011;5860;52.018;8.536;2022-07-17T08:40:37;5.85;;;1.67;;
11608;SDS011;5860;52.018;8.536;2022-07-17T08:43:06;3.28;;;1.45;;
11608;SDS011;5860;52.018;8.536;2022-07-17T08:45:34;3.95;;;1.70;;
11608;SDS011;5860;52.018;8.536;2022-07-17T08:48:12;3.40;;;1.40;;
11608;SDS011;5860;52.018;8.536;2022-07-17T08:50:39;5.55;;;1.88;;
11608;SDS011;5860;52.018;8.536;2022-07-17T08:53:07;2.45;;;1.40;;
11608;SDS011;5860;52.018;8.536;2022-07-17T08:55:34;4.55;;;1.60;;
11608;SDS011;5860;52.018;8.536;2022-07-17T08:58:01;7.18;;;1.58;;
11608;SDS011;5860;52.018;8.536;2022-07-17T09:00:28;6.28;;;1.50;;
11608;SDS011;5860;52.018;8.536;2022-07-17T09:03:00;3.90;;;1.30;;
11608;SDS011;5860;52.018;8.536;2022-07-17T09:05:33;3.40;;;1.40;;
11608;SDS011;5860;52.018;8.536;2022-07-17T09:08:01;4.07;;;1.50;;
11608;SDS011;5860;52.018;8.536;2022-07-17T09:10:39;3.47;;;1.40;;
11608;SDS011;5860;52.018;8.536;2022-07-17T09:15:54;3.00;;;1.55;;
11608;SDS011;5860;52.018;8.536;2022-07-17T09:18:24;3.05;;;1.27;;
11608;SDS011;5860;52.018;8.536;2022-07-17T09:23:21;4.35;;;1.60;;
11608;SDS011;5860;52.018;8.536;2022-07-17T09:25:50;3.40;;;1.60;;
11608;SDS011;5860;52.018;8.536;2022-07-17T09:28:19;3.13;;;1.48;;
11608;SDS011;5860;52.018;8.536;2022-07-17T09:30:48;6.65;;;1.38;;
11608;SDS011;5860;52.018;8.536;2022-07-17T09:33:22;6.00;;;1.35;;
11608;SDS011;5860;52.018;8.536;2022-07-17T09:35:53;3.17;;;1.23;;
11608;SDS011;5860;52.018;8.536;2022-07-17T09:38:40;3.25;;;1.38;;
11608;SDS011;5860;52.018;8.536;2022-07-17T09:43:45;2.47;;;1.17;;
11608;SDS011;5860;52.018;8.536;2022-07-17T09:46:20;2.38;;;1.35;;
11608;SDS011;5860;52.018;8.536;2022-07-17T09:48:54;4.63;;;1.60;;
11608;SDS011;5860;52.018;8.536;2022-07-17T09:53:58;4.22;;;1.40;;
11608;SDS011;5860;52.018;8.536;2022-07-17T09:56:27;4.32;;;1.08;;
11608;SDS011;5860;52.018;8.536;2022-07-17T09:59:02;3.20;;;1.02;;
11608;SDS011;5860;52.018;8.536;2022-07-17T10:01:33;3.00;;;0.93;;
11608;SDS011;5860;52.018;8.536;2022-07-17T10:04:02;2.45;;;1.02;;
11608;SDS011;5860;52.018;8.536;2022-07-17T10:06:30;2.60;;;1.05;;
11608;SDS011;5860;52.018;8.536;2022-07-17T10:08:58;4.13;;;1.30;;
11608;SDS011;5860;52.018;8.536;2022-07-17T10:11:30;1.90;;;1.10;;
11608;SDS011;5860;52.018;8.536;2022-07-17T10:14:03;2.83;;;1.40;;
11608;SDS011;5860;52.018;8.536;2022-07-17T10:16:37;2.58;;;1.15;;
11608;SDS011;5860;52.018;8.536;2022-07-17T10:19:15;2.10;;;1.00;;
11608;SDS011;5860;52.018;8.536;2022-07-17T10:21:56;3.60;;;1.23;;
11608;SDS011;5860;52.018;8.536;2022-07-17T10:24:31;4.13;;;1.20;;
11608;SDS011;5860;52.018;8.536;2022-07-17T10:26:58;2.53;;;1.20;;
11608;SDS011;5860;52.018;8.536;2022-07-17T10:29:31;3.72;;;1.33;;
11608;SDS011;5860;52.018;8.536;2022-07-17T10:32:00;5.20;;;1.30;;
11608;SDS011;5860;52.018;8.536;2022-07-17T10:37:14;3.50;;;1.27;;
11608;SDS011;5860;52.018;8.536;2022-07-17T10:39:54;2.45;;;1.13;;
11608;SDS011;5860;52.018;8.536;2022-07-17T10:42:38;2.90;;;1.13;;
11608;SDS011;5860;52.018;8.536;2022-07-17T10:45:13;2.92;;;1.30;;
11608;SDS011;5860;52.018;8.536;2022-07-17T10:47:44;4.60;;;1.23;;
11608;SDS011;5860;52.018;8.536;2022-07-17T10:50:14;4.13;;;1.38;;
11608;SDS011;5860;52.018;8.536;2022-07-17T10:52:43;3.47;;;1.30;;
11608;SDS011;5860;52.018;8.536;2022-07-17T10:55:20;2.28;;;1.58;;
11608;SDS011;5860;52.018;8.536;2022-07-17T10:57:49;3.83;;;1.25;;
11608;SDS011;5860;52.018;8.536;2022-07-17T11:00:16;4.22;;;1.10;;
11608;SDS011;5860;52.018;8.536;2022-07-17T11:02:44;2.70;;;1.20;;
11608;SDS011;5860;52.018;8.536;2022-07-17T11:05:12;2.85;;;1.20;;
11608;SDS011;5860;52.018;8.536;2022-07-17T11:07:50;3.05;;;1.10;;
11608;SDS011;5860;52.018;8.536;2022-07-17T11:10:26;3.85;;;1.02;;
11608;SDS011;5860;52.018;8.536;2022-07-17T11:12:55;2.35;;;1.00;;
11608;SDS011;5860;52.018;8.536;2022-07-17T11:15:47;3.22;;;1.13;;
11608;SDS011;5860;52.018;8.536;2022-07-17T11:18:17;2.75;;;1.00;;
11608;SDS011;5860;52.018;8.536;2022-07-17T11:20:59;6.68;;;1.17;;
11608;SDS011;5860;52.018;8.536;2022-07-17T11:23:29;4.32;;;0.95;;
11608;SDS011;5860;52.018;8.536;2022-07-17T11:26:05;2.55;;;1.20;;
11608;SDS011;5860;52.018;8.536;2022-07-17T11:34:01;3.40;;;1.25;;
11608;SDS011;5860;52.018;8.536;2022-07-17T11:39:01;2.90;;;1.00;;
11608;SDS011;5860;52.018;8.536;2022-07-17T11:41:40;2.85;;;1.00;;
11608;SDS011;5860;52.018;8.536;2022-07-17T11:44:10;4.53;;;1.17;;
11608;SDS011;5860;52.018;8.536;2022-07-17T11:46:40;3.17;;;1.02;;
11608;SDS011;5860;52.018;8.536;2022-07-17T11:49:08;2.33;;;1.20;;
11608;SDS011;5860;52.018;8.536;2022-07-17T11:51:37;4.35;;;1.10;;
11608;SDS011;5860;52.018;8.536;2022-07-17T11:54:05;4.43;;;1.48;;
11608;SDS011;5860;52.018;8.536;2022-07-17T11:56:33;3.13;;;1.25;;
11608;SDS011;5860;52.018;8.536;2022-07-17T11:59:00;3.10;;;1.10;;
11608;SDS011;5860;52.018;8.536;2022-07-17T12:01:29;5.88;;;1.17;;
11608;SDS011;5860;52.018;8.536;2022-07-17T12:04:03;3.60;;;1.30;;
11608;SDS011;5860;52.018;8.536;2022-07-17T12:06:41;3.38;;;1.30;;
11608;SDS011;5860;52.018;8.536;2022-07-17T12:09:08;3.10;;;1.27;;
11608;SDS011;5860;52.018;8.536;2022-07-17T12:11:45;2.40;;;1.20;;
11608;SDS011;5860;52.018;8.536;2022-07-17T12:14:13;2.00;;;1.13;;
11608;SDS011;5860;52.018;8.536;2022-07-17T12:16:41;2.42;;;1.27;;
11608;SDS011;5860;52.018;8.536;2022-07-17T12:19:09;4.82;;;1.00;;
11608;SDS011;5860;52.018;8.536;2022-07-17T12:24:28;3.20;;;1.00;;
11608;SDS011;5860;52.018;8.536;2022-07-17T12:27:03;2.83;;;0.90;;
11608;SDS011;5860;52.018;8.536;2022-07-17T12:29:32;3.10;;;1.00;;
11608;SDS011;5860;52.018;8.536;2022-07-17T12:32:09;2.00;;;1.00;;
11608;SDS011;5860;52.018;8.536;2022-07-17T12:34:39;3.42;;;1.20;;
11608;SDS011;5860;52.018;8.536;2022-07-17T12:37:16;2.63;;;1.05;;
11608;SDS011;5860;52.018;8.536;2022-07-17T12:39:46;4.18;;;1.10;;
11608;SDS011;5860;52.018;8.536;2022-07-17T12:42:14;3.00;;;0.98;;
11608;SDS011;5860;52.018;8.536;2022-07-17T12:44:42;2.30;;;0.90;;
11608;SDS011;5860;52.018;8.536;2022-07-17T12:47:10;5.47;;;1.20;;
11608;SDS011;5860;52.018;8.536;2022-07-17T12:49:37;3.67;;;1.02;;
11608;SDS011;5860;52.018;8.536;2022-07-17T12:52:07;3.95;;;0.90;;
11608;SDS011;5860;52.018;8.536;2022-07-17T12:54:34;3.35;;;1.10;;
11608;SDS011;5860;52.018;8.536;2022-07-17T12:57:01;4.65;;;1.20;;
11608;SDS011;5860;52.018;8.536;2022-07-17T12:59:28;1.38;;;0.85;;
11608;SDS011;5860;52.018;8.536;2022-07-17T13:01:55;2.65;;;1.30;;
11608;SDS011;5860;52.018;8.536;2022-07-17T13:04:23;3.63;;;1.70;;
11608;SDS011;5860;52.018;8.536;2022-07-17T13:06:50;2.53;;;1.17;;
11608;SDS011;5860;52.018;8.536;2022-07-17T13:09:17;1.70;;;0.88;;
11608;SDS011;5860;52.018;8.536;2022-07-17T13:11:45;1.52;;;1.00;;
11608;SDS011;5860;52.018;8.536;2022-07-17T13:14:12;2.97;;;0.90;;
11608;SDS011;5860;52.018;8.536;2022-07-17T13:16:39;2.88;;;1.00;;
11608;SDS011;5860;52.018;8.536;2022-07-17T13:19:07;2.28;;;0.80;;
11608;SDS011;5860;52.018;8.536;2022-07-17T13:21:34;1.50;;;0.75;;
11608;SDS011;5860;52.018;8.536;2022-07-17T13:24:01;1.45;;;0.88;;
11608;SDS011;5860;52.018;8.536;2022-07-17T13:26:29;1.20;;;0.73;;
11608;SDS011;5860;52.018;8.536;2022-07-17T13:28:57;1.48;;;0.68;;
11608;SDS011;5860;52.018;8.536;2022-07-17T13:31:24;1.17;;;0.65;;
11608;SDS011;5860;52.018;8.536;2022-07-17T13:33:51;1.83;;;0.95;;
11608;SDS011;5860;52.018;8.536;2022-07-17T13:36:17;2.25;;;0.88;;
11608;SDS011;5860;52.018;8.536;2022-07-17T13:38:45;2.67;;;0.82;;
11608;SDS011;5860;52.018;8.536;2022-07-17T13:41:11;1.77;;;0.75;;
11608;SDS011;5860;52.018;8.536;2022-07-17T13:43:38;2.05;;;0.90;;
11608;SDS011;5860;52.018;8.536;2022-07-17T13:46:06;2.03;;;1.05;;
11608;SDS011;5860;52.018;8.536;2022-07-17T13:48:33;2.10;;;1.00;;
11608;SDS011;5860;52.018;8.536;2022-07-17T13:51:00;4.22;;;1.40;;
11608;SDS011;5860;52.018;8.536;2022-07-17T13:53:28;2.25;;;0.85;;
11608;SDS011;5860;52.018;8.536;2022-07-17T13:55:56;1.38;;;1.13;;
11608;SDS011;5860;52.018;8.536;2022-07-17T13:58:23;3.35;;;1.00;;
11608;SDS011;5860;52.018;8.536;2022-07-17T14:00:50;2.03;;;0.90;;
11608;SDS011;5860;52.018;8.536;2022-07-17T14:03:17;1.73;;;0.93;;
11608;SDS011;5860;52.018;8.536;2022-07-17T14:05:44;1.42;;;0.75;;
11608;SDS011;5860;52.018;8.536;2022-07-17T14:08:11;1.63;;;1.00;;
11608;SDS011;5860;52.018;8.536;2022-07-17T14:10:38;2.17;;;1.00;;
11608;SDS011;5860;52.018;8.536;2022-07-17T14:13:05;3.72;;;0.90;;
11608;SDS011;5860;52.018;8.536;2022-07-17T14:15:32;1.42;;;0.70;;
11608;SDS011;5860;52.018;8.536;2022-07-17T14:17:59;2.25;;;0.82;;
11608;SDS011;5860;52.018;8.536;2022-07-17T14:20:27;1.70;;;1.50;;
11608;SDS011;5860;52.018;8.536;2022-07-17T14:22:54;2.40;;;1.42;;
11608;SDS011;5860;52.018;8.536;2022-07-17T14:25:21;1.45;;;0.77;;
11608;SDS011;5860;52.018;8.536;2022-07-17T14:27:48;2.25;;;0.93;;
11608;SDS011;5860;52.018;8.536;2022-07-17T14:30:15;2.13;;;0.80;;
11608;SDS011;5860;52.018;8.536;2022-07-17T14:32:42;1.63;;;0.95;;
11608;SDS011;5860;52.018;8.536;2022-07-17T14:35:09;0.98;;;0.70;;
11608;SDS011;5860;52.018;8.536;2022-07-17T14:37:36;1.13;;;0.60;;
11608;SDS011;5860;52.018;8.536;2022-07-17T14:40:09;1.15;;;0.60;;
11608;SDS011;5860;52.018;8.536;2022-07-17T14:42:40;2.40;;;0.85;;
11608;SDS011;5860;52.018;8.536;2022-07-17T14:45:07;3.08;;;0.88;;
11608;SDS011;5860;52.018;8.536;2022-07-17T14:47:35;1.30;;;0.70;;
11608;SDS011;5860;52.018;8.536;2022-07-17T14:50:03;1.38;;;0.80;;
11608;SDS011;5860;52.018;8.536;2022-07-17T14:52:30;1.80;;;0.73;;
11608;SDS011;5860;52.018;8.536;2022-07-17T14:54:56;1.33;;;0.82;;
11608;SDS011;5860;52.018;8.536;2022-07-17T14:57:24;2.70;;;1.00;;
11608;SDS011;5860;52.018;8.536;2022-07-17T14:59:51;1.40;;;0.95;;
11608;SDS011;5860;52.018;8.536;2022-07-17T15:02:18;1.58;;;0.82;;
11608;SDS011;5860;52.018;8.536;2022-07-17T15:04:45;1.55;;;1.00;;
11608;SDS011;5860;52.018;8.536;2022-07-17T15:07:12;2.17;;;0.90;;
11608;SDS011;5860;52.018;8.536;2022-07-17T15:09:39;3.60;;;2.35;;
11608;SDS011;5860;52.018;8.536;2022-07-17T15:12:06;2.30;;;0.80;;
11608;SDS011;5860;52.018;8.536;2022-07-17T15:14:33;1.98;;;0.90;;
11608;SDS011;5860;52.018;8.536;2022-07-17T15:17:00;2.92;;;2.20;;
11608;SDS011;5860;52.018;8.536;2022-07-17T15:19:27;1.77;;;0.88;;
11608;SDS011;5860;52.018;8.536;2022-07-17T15:21:54;4.55;;;1.00;;
11608;SDS011;5860;52.018;8.536;2022-07-17T15:24:21;3.75;;;0.90;;
11608;SDS011;5860;52.018;8.536;2022-07-17T15:26:48;2.33;;;0.85;;
11608;SDS011;5860;52.018;8.536;2022-07-17T15:29:15;3.47;;;1.10;;
11608;SDS011;5860;52.018;8.536;2022-07-17T15:31:43;1.73;;;0.85;;
11608;SDS011;5860;52.018;8.536;2022-07-17T15:34:10;1.45;;;1.10;;